sensor_id;sensor_type;location;lat;lon;timestamp;pressure;altitude;pressure_sealevel;temperature;humidity
66196;BME280;53000;45.182;5.736;2023-11-21T00:00:48;99008.28;;;12.63;67.33
66196;BME280;53000;45.182;5.736;2023-11-21T00:03:14;99009.13;;;12.63;67.11
66196;BME280;53000;45.182;5.736;2023-11-21T00:05:40;98997.44;;;12.63;67.22
66196;BME280;53000;45.182;5.736;2023-11-21T00:08:07;98993.22;;;12.60;66.99
66196;BME280;53000;45.182;5.736;2023-11-21T00:10:32;99008.28;;;12.63;67.49
66196;BME280;53000;45.182;5.736;2023-11-21T00:12:58;99010.81;;;12.64;67.21
66196;BME280;53000;45.182;5.736;2023-11-21T00:15:23;99003.69;;;12.63;66.94
66196;BME280;53000;45.182;5.736;2023-11-21T00:17:49;98994.91;;;12.61;66.69
66196;BME280;53000;45.182;5.736;2023-11-21T00:20:14;98991.09;;;12.56;67.00
66196;BME280;53000;45.182;5.736;2023-11-21T00:22:40;98995.66;;;12.55;67.01
66196;BME280;53000;45.182;5.736;2023-11-21T00:25:06;98985.84;;;12.54;67.37
66196;BME280;53000;45.182;5.736;2023-11-21T00:27:34;98993.16;;;12.54;67.55
66196;BME280;53000;45.182;5.736;2023-11-21T00:30:00;98980.22;;;12.56;67.43
66196;BME280;53000;45.182;5.736;2023-11-21T00:32:25;98981.06;;;12.56;67.49
66196;BME280;53000;45.182;5.736;2023-11-21T00:34:51;98974.31;;;12.52;67.45
66196;BME280;53000;45.182;5.736;2023-11-21T00:37:16;98979.09;;;12.50;67.33
66196;BME280;53000;45.182;5.736;2023-11-21T00:39:41;98979.13;;;12.35;67.79
66196;BME280;53000;45.182;5.736;2023-11-21T00:42:07;98984.06;;;12.32;67.81
66196;BME280;53000;45.182;5.736;2023-11-21T00:44:33;98979.28;;;12.34;67.90
66196;BME280;53000;45.182;5.736;2023-11-21T00:46:59;98976.41;;;12.35;68.24
66196;BME280;53000;45.182;5.736;2023-11-21T00:49:24;98973.97;;;12.40;68.09
66196;BME280;53000;45.182;5.736;2023-11-21T00:51:50;98972.75;;;12.43;67.94
66196;BME280;53000;45.182;5.736;2023-11-21T00:54:15;98968.63;;;12.47;67.87
66196;BME280;53000;45.182;5.736;2023-11-21T00:56:43;98965.53;;;12.50;67.86
66196;BME280;53000;45.182;5.736;2023-11-21T00:59:08;98975.16;;;12.53;68.16
66196;BME280;53000;45.182;5.736;2023-11-21T01:01:34;98978.09;;;12.51;67.74
66196;BME280;53000;45.182;5.736;2023-11-21T01:03:59;98972.00;;;12.49;68.00
66196;BME280;53000;45.182;5.736;2023-11-21T01:06:25;98972.00;;;12.49;67.75
66196;BME280;53000;45.182;5.736;2023-11-21T01:08:50;98978.09;;;12.51;67.40
66196;BME280;53000;45.182;5.736;2023-11-21T01:11:16;98979.94;;;12.51;67.64
66196;BME280;53000;45.182;5.736;2023-11-21T01:13:41;98972.00;;;12.49;67.76
66196;BME280;53000;45.182;5.736;2023-11-21T01:16:08;98961.31;;;12.47;67.67
66196;BME280;53000;45.182;5.736;2023-11-21T01:18:35;98965.91;;;12.47;67.73
66196;BME280;53000;45.182;5.736;2023-11-21T01:21:00;98974.06;;;12.47;67.88
66196;BME280;53000;45.182;5.736;2023-11-21T01:23:26;98976.13;;;12.45;67.47
66196;BME280;53000;45.182;5.736;2023-11-21T01:25:52;98965.84;;;12.40;67.38
66196;BME280;53000;45.182;5.736;2023-11-21T01:28:17;98970.50;;;12.32;67.96
66196;BME280;53000;45.182;5.736;2023-11-21T01:30:43;98965.47;;;12.28;68.35
66196;BME280;53000;45.182;5.736;2023-11-21T01:33:09;98959.84;;;12.30;67.75
66196;BME280;53000;45.182;5.736;2023-11-21T01:35:35;98962.34;;;12.32;67.60
66196;BME280;53000;45.182;5.736;2023-11-21T01:38:01;98969.84;;;12.30;68.03
66196;BME280;53000;45.182;5.736;2023-11-21T01:40:26;98966.78;;;12.33;67.79
66196;BME280;53000;45.182;5.736;2023-11-21T01:42:53;98969.97;;;12.36;67.50
66196;BME280;53000;45.182;5.736;2023-11-21T01:45:18;98969.47;;;12.33;67.78
66196;BME280;53000;45.182;5.736;2023-11-21T01:47:44;98979.78;;;12.37;67.75
66196;BME280;53000;45.182;5.736;2023-11-21T01:50:14;98974.59;;;12.42;67.58
66196;BME280;53000;45.182;5.736;2023-11-21T01:52:41;98966.94;;;12.46;67.58
66196;BME280;53000;45.182;5.736;2023-11-21T01:55:08;98964.69;;;12.50;67.47
66196;BME280;53000;45.182;5.736;2023-11-21T01:57:35;98952.59;;;12.52;67.36
66196;BME280;53000;45.182;5.736;2023-11-21T02:00:03;98954.94;;;12.55;67.39
66196;BME280;53000;45.182;5.736;2023-11-21T02:02:47;98952.69;;;12.59;67.14
66196;BME280;53000;45.182;5.736;2023-11-21T02:05:14;98945.19;;;12.61;67.43
66196;BME280;53000;45.182;5.736;2023-11-21T02:07:41;98943.97;;;12.63;67.27
66196;BME280;53000;45.182;5.736;2023-11-21T02:10:08;98946.50;;;12.65;67.01
66196;BME280;53000;45.182;5.736;2023-11-21T02:12:34;98939.41;;;12.64;66.78
66196;BME280;53000;45.182;5.736;2023-11-21T02:15:02;98920.94;;;12.59;67.14
66196;BME280;53000;45.182;5.736;2023-11-21T02:17:28;98920.28;;;12.57;66.63
66196;BME280;53000;45.182;5.736;2023-11-21T02:19:53;98930.13;;;12.58;66.81
66196;BME280;53000;45.182;5.736;2023-11-21T02:22:19;98922.81;;;12.59;66.73
66196;BME280;53000;45.182;5.736;2023-11-21T02:24:45;98928.25;;;12.59;66.70
66196;BME280;53000;45.182;5.736;2023-11-21T02:27:12;98919.63;;;12.55;66.66
66196;BME280;53000;45.182;5.736;2023-11-21T02:29:37;98909.00;;;12.54;66.72
66196;BME280;53000;45.182;5.736;2023-11-21T02:32:03;98916.47;;;12.52;66.81
66196;BME280;53000;45.182;5.736;2023-11-21T02:34:28;98911.25;;;12.50;66.40
66196;BME280;53000;45.182;5.736;2023-11-21T02:36:54;98906.38;;;12.45;66.35
66196;BME280;53000;45.182;5.736;2023-11-21T02:39:20;98903.41;;;12.40;66.63
66196;BME280;53000;45.182;5.736;2023-11-21T02:41:47;98906.66;;;12.36;66.88
66196;BME280;53000;45.182;5.736;2023-11-21T02:44:13;98900.34;;;12.28;66.66
66196;BME280;53000;45.182;5.736;2023-11-21T02:46:38;98900.72;;;12.25;67.00
66196;BME280;53000;45.182;5.736;2023-11-21T02:49:05;98896.50;;;12.23;66.81
66196;BME280;53000;45.182;5.736;2023-11-21T02:51:32;98893.53;;;12.18;66.62
66196;BME280;53000;45.182;5.736;2023-11-21T02:53:57;98895.50;;;12.09;66.69
66196;BME280;53000;45.182;5.736;2023-11-21T02:56:28;98895.84;;;12.06;66.67
66196;BME280;53000;45.182;5.736;2023-11-21T02:58:57;98896.63;;;12.00;66.74
66196;BME280;53000;45.182;5.736;2023-11-21T03:01:22;98888.84;;;11.97;66.49
66196;BME280;53000;45.182;5.736;2023-11-21T03:03:49;98886.53;;;11.94;67.37
66196;BME280;53000;45.182;5.736;2023-11-21T03:06:17;98886.53;;;11.94;66.94
66196;BME280;53000;45.182;5.736;2023-11-21T03:08:42;98891.66;;;11.89;66.76
66196;BME280;53000;45.182;5.736;2023-11-21T03:11:08;98889.13;;;11.87;67.03
66196;BME280;53000;45.182;5.736;2023-11-21T03:13:33;98896.78;;;11.83;66.70
66196;BME280;53000;45.182;5.736;2023-11-21T03:15:59;98895.09;;;11.82;67.20
66196;BME280;53000;45.182;5.736;2023-11-21T03:18:24;98890.63;;;11.75;66.60
66196;BME280;53000;45.182;5.736;2023-11-21T03:20:50;98889.56;;;11.76;67.28
66196;BME280;53000;45.182;5.736;2023-11-21T03:23:16;98879.94;;;11.73;67.02
66196;BME280;53000;45.182;5.736;2023-11-21T03:25:42;98888.75;;;11.75;66.82
66196;BME280;53000;45.182;5.736;2023-11-21T03:28:07;98885.84;;;11.77;66.65
66196;BME280;53000;45.182;5.736;2023-11-21T03:30:33;98886.84;;;11.76;67.01
66196;BME280;53000;45.182;5.736;2023-11-21T03:32:59;98887.72;;;11.76;66.63
66196;BME280;53000;45.182;5.736;2023-11-21T03:35:24;98883.31;;;11.75;66.33
66196;BME280;53000;45.182;5.736;2023-11-21T03:37:49;98883.31;;;11.75;66.32
66196;BME280;53000;45.182;5.736;2023-11-21T03:40:15;98887.91;;;11.75;65.93
66196;BME280;53000;45.182;5.736;2023-11-21T03:42:40;98881.66;;;11.74;65.49
66196;BME280;53000;45.182;5.736;2023-11-21T03:45:07;98879.94;;;11.73;65.48
66196;BME280;53000;45.182;5.736;2023-11-21T03:47:33;98883.69;;;11.72;65.92
66196;BME280;53000;45.182;5.736;2023-11-21T03:49:59;98874.53;;;11.73;65.55
66196;BME280;53000;45.182;5.736;2023-11-21T03:52:24;98871.81;;;11.73;65.78
66196;BME280;53000;45.182;5.736;2023-11-21T03:54:50;98873.22;;;11.69;65.47
66196;BME280;53000;45.182;5.736;2023-11-21T03:57:15;98867.34;;;11.65;65.81
66196;BME280;53000;45.182;5.736;2023-11-21T03:59:41;98871.44;;;11.61;65.94
66196;BME280;53000;45.182;5.736;2023-11-21T04:02:07;98878.53;;;11.62;66.22
66196;BME280;53000;45.182;5.736;2023-11-21T04:04:33;98882.94;;;11.63;65.97
66196;BME280;53000;45.182;5.736;2023-11-21T04:06:59;98882.47;;;11.60;65.62
66196;BME280;53000;45.182;5.736;2023-11-21T04:09:24;98881.63;;;11.59;65.99
66196;BME280;53000;45.182;5.736;2023-11-21T04:11:51;98880.31;;;11.55;65.71
66196;BME280;53000;45.182;5.736;2023-11-21T04:14:16;98893.69;;;11.57;65.92
66196;BME280;53000;45.182;5.736;2023-11-21T04:16:42;98889.94;;;11.58;66.14
66196;BME280;53000;45.182;5.736;2023-11-21T04:19:07;98894.31;;;11.59;65.56
66196;BME280;53000;45.182;5.736;2023-11-21T04:21:34;98894.31;;;11.59;65.68
66196;BME280;53000;45.182;5.736;2023-11-21T04:23:59;98890.44;;;11.61;65.60
66196;BME280;53000;45.182;5.736;2023-11-21T04:26:25;98887.41;;;11.56;65.47
66196;BME280;53000;45.182;5.736;2023-11-21T04:28:50;98892.75;;;11.50;66.36
66196;BME280;53000;45.182;5.736;2023-11-21T04:31:15;98896.75;;;11.54;66.34
66196;BME280;53000;45.182;5.736;2023-11-21T04:33:41;98908.25;;;11.56;66.24
66196;BME280;53000;45.182;5.736;2023-11-21T04:36:06;98908.53;;;11.61;66.07
66196;BME280;53000;45.182;5.736;2023-11-21T04:38:32;98910.72;;;11.65;66.20
66196;BME280;53000;45.182;5.736;2023-11-21T04:40:58;98911.38;;;11.68;66.02
66196;BME280;53000;45.182;5.736;2023-11-21T04:43:23;98916.41;;;11.71;65.46
66196;BME280;53000;45.182;5.736;2023-11-21T04:45:48;98913.69;;;11.71;65.56
66196;BME280;53000;45.182;5.736;2023-11-21T04:48:14;98911.66;;;11.73;65.71
66196;BME280;53000;45.182;5.736;2023-11-21T04:50:39;98913.97;;;11.76;66.49
66196;BME280;53000;45.182;5.736;2023-11-21T04:53:04;98910.06;;;11.78;65.97
66196;BME280;53000;45.182;5.736;2023-11-21T04:55:30;98904.25;;;11.81;66.08
66196;BME280;53000;45.182;5.736;2023-11-21T04:57:56;98905.94;;;11.82;66.04
66196;BME280;53000;45.182;5.736;2023-11-21T05:00:21;98915.50;;;11.78;66.00
66196;BME280;53000;45.182;5.736;2023-11-21T05:02:47;98917.72;;;11.75;65.92
66196;BME280;53000;45.182;5.736;2023-11-21T05:05:13;98922.97;;;11.76;65.98
66196;BME280;53000;45.182;5.736;2023-11-21T05:07:39;98919.41;;;11.76;66.19
66196;BME280;53000;45.182;5.736;2023-11-21T05:10:05;98917.34;;;11.78;66.49
66196;BME280;53000;45.182;5.736;2023-11-21T05:12:37;98920.25;;;11.76;66.31
66196;BME280;53000;45.182;5.736;2023-11-21T05:15:06;98917.16;;;11.79;66.54
66196;BME280;53000;45.182;5.736;2023-11-21T05:17:36;98926.34;;;11.78;65.86
66196;BME280;53000;45.182;5.736;2023-11-21T05:20:03;98922.75;;;11.78;66.50
66196;BME280;53000;45.182;5.736;2023-11-21T05:22:29;98916.31;;;11.79;66.46
66196;BME280;53000;45.182;5.736;2023-11-21T05:24:55;98910.72;;;11.80;66.50
66196;BME280;53000;45.182;5.736;2023-11-21T05:27:20;98915.59;;;11.85;66.04
66196;BME280;53000;45.182;5.736;2023-11-21T05:29:46;98902.88;;;11.85;66.04
66196;BME280;53000;45.182;5.736;2023-11-21T05:32:11;98908.09;;;11.87;66.00
66196;BME280;53000;45.182;5.736;2023-11-21T05:34:36;98905.41;;;11.87;65.13
66196;BME280;53000;45.182;5.736;2023-11-21T05:37:02;98901.69;;;11.88;65.26
66196;BME280;53000;45.182;5.736;2023-11-21T05:39:27;98898.78;;;11.90;65.38
66196;BME280;53000;45.182;5.736;2023-11-21T05:41:53;98902.16;;;11.92;65.10
66196;BME280;53000;45.182;5.736;2023-11-21T05:44:19;98906.34;;;11.94;64.58
66196;BME280;53000;45.182;5.736;2023-11-21T05:46:44;98904.28;;;11.96;62.80
66196;BME280;53000;45.182;5.736;2023-11-21T05:49:09;98901.09;;;11.93;62.99
66196;BME280;53000;45.182;5.736;2023-11-21T05:51:35;98897.75;;;11.91;63.72
66196;BME280;53000;45.182;5.736;2023-11-21T05:54:01;98900.16;;;11.85;63.57
66196;BME280;53000;45.182;5.736;2023-11-21T05:56:26;98897.78;;;11.82;63.93
66196;BME280;53000;45.182;5.736;2023-11-21T05:58:52;98907.25;;;11.86;63.65
66196;BME280;53000;45.182;5.736;2023-11-21T06:01:17;98907.09;;;11.88;63.56
66196;BME280;53000;45.182;5.736;2023-11-21T06:03:43;98910.28;;;11.92;63.72
66196;BME280;53000;45.182;5.736;2023-11-21T06:06:08;98897.56;;;11.92;63.63
66196;BME280;53000;45.182;5.736;2023-11-21T06:08:33;98901.09;;;11.93;63.81
66196;BME280;53000;45.182;5.736;2023-11-21T06:10:59;98899.44;;;11.92;63.52
66196;BME280;53000;45.182;5.736;2023-11-21T06:13:24;98889.31;;;11.85;63.78
66196;BME280;53000;45.182;5.736;2023-11-21T06:15:50;98896.25;;;11.88;63.58
66196;BME280;53000;45.182;5.736;2023-11-21T06:18:16;98893.53;;;11.88;64.11
66196;BME280;53000;45.182;5.736;2023-11-21T06:20:44;98896.06;;;11.90;63.61
66196;BME280;53000;45.182;5.736;2023-11-21T06:23:10;98894.19;;;11.90;63.82
66196;BME280;53000;45.182;5.736;2023-11-21T06:25:36;98894.19;;;11.90;63.80
66196;BME280;53000;45.182;5.736;2023-11-21T06:28:02;98903.81;;;11.93;64.08
66196;BME280;53000;45.182;5.736;2023-11-21T06:30:27;98904.28;;;11.96;63.93
66196;BME280;53000;45.182;5.736;2023-11-21T06:32:54;98909.53;;;11.98;63.71
66196;BME280;53000;45.182;5.736;2023-11-21T06:35:20;98912.03;;;11.99;63.62
66196;BME280;53000;45.182;5.736;2023-11-21T06:37:48;98917.47;;;11.99;63.89
66196;BME280;53000;45.182;5.736;2023-11-21T06:40:14;98916.47;;;12.00;63.32
66196;BME280;53000;45.182;5.736;2023-11-21T06:42:43;98915.63;;;12.00;63.52
66196;BME280;53000;45.182;5.736;2023-11-21T06:45:09;98919.16;;;12.00;63.47
66196;BME280;53000;45.182;5.736;2023-11-21T06:47:36;98920.00;;;12.01;63.60
66196;BME280;53000;45.182;5.736;2023-11-21T06:50:01;98920.19;;;11.99;63.66
66196;BME280;53000;45.182;5.736;2023-11-21T06:52:26;98922.06;;;11.99;63.67
66196;BME280;53000;45.182;5.736;2023-11-21T06:54:52;98913.09;;;11.98;63.55
66196;BME280;53000;45.182;5.736;2023-11-21T06:57:17;98919.34;;;11.99;63.51
66196;BME280;53000;45.182;5.736;2023-11-21T06:59:43;98919.53;;;11.97;63.64
66196;BME280;53000;45.182;5.736;2023-11-21T07:02:09;98916.63;;;11.99;63.42
66196;BME280;53000;45.182;5.736;2023-11-21T07:04:37;98922.91;;;11.99;63.66
66196;BME280;53000;45.182;5.736;2023-11-21T07:07:03;98915.63;;;12.00;64.08
66196;BME280;53000;45.182;5.736;2023-11-21T07:09:29;98915.06;;;12.04;63.46
66196;BME280;53000;45.182;5.736;2023-11-21T07:11:56;98919.66;;;12.04;63.38
66196;BME280;53000;45.182;5.736;2023-11-21T07:14:22;98921.31;;;12.05;63.28
66196;BME280;53000;45.182;5.736;2023-11-21T07:16:48;98925.16;;;12.11;63.27
66196;BME280;53000;45.182;5.736;2023-11-21T07:19:14;98929.94;;;12.09;63.28
66196;BME280;53000;45.182;5.736;2023-11-21T07:24:14;98927.56;;;12.05;63.39
66196;BME280;53000;45.182;5.736;2023-11-21T07:26:40;98918.41;;;12.06;63.31
66196;BME280;53000;45.182;5.736;2023-11-21T07:29:06;98918.88;;;12.10;63.61
66196;BME280;53000;45.182;5.736;2023-11-21T07:31:32;98918.78;;;12.18;63.52
66196;BME280;53000;45.182;5.736;2023-11-21T07:33:59;98928.13;;;12.31;63.21
66196;BME280;53000;45.182;5.736;2023-11-21T07:36:24;98919.22;;;12.37;63.32
66196;BME280;53000;45.182;5.736;2023-11-21T07:38:50;98925.38;;;12.45;63.11
66196;BME280;53000;45.182;5.736;2023-11-21T07:41:17;98926.69;;;12.50;62.88
66196;BME280;53000;45.182;5.736;2023-11-21T07:43:45;98930.72;;;12.54;62.91
66196;BME280;53000;45.182;5.736;2023-11-21T07:46:11;98923.59;;;12.53;63.27
66196;BME280;53000;45.182;5.736;2023-11-21T07:48:41;98926.75;;;12.56;63.30
66196;BME280;53000;45.182;5.736;2023-11-21T07:51:08;98926.59;;;12.58;63.16
66196;BME280;53000;45.182;5.736;2023-11-21T07:53:34;98920.09;;;12.59;62.78
66196;BME280;53000;45.182;5.736;2023-11-21T07:56:03;98926.00;;;12.62;62.94
66196;BME280;53000;45.182;5.736;2023-11-21T07:58:29;98923.09;;;12.64;62.89
66196;BME280;53000;45.182;5.736;2023-11-21T08:00:55;98928.72;;;12.62;63.08
66196;BME280;53000;45.182;5.736;2023-11-21T08:03:20;98919.41;;;12.72;62.70
66196;BME280;53000;45.182;5.736;2023-11-21T08:05:46;98916.25;;;12.89;63.40
66196;BME280;53000;45.182;5.736;2023-11-21T08:08:11;98914.91;;;13.43;63.23
66196;BME280;53000;45.182;5.736;2023-11-21T08:10:37;98917.53;;;14.28;62.81
66196;BME280;53000;45.182;5.736;2023-11-21T08:13:03;98917.38;;;14.98;60.22
66196;BME280;53000;45.182;5.736;2023-11-21T08:15:29;98905.88;;;15.22;59.94
66196;BME280;53000;45.182;5.736;2023-11-21T08:17:57;98910.09;;;15.38;59.04
66196;BME280;53000;45.182;5.736;2023-11-21T08:20:22;98908.38;;;15.44;58.42
66196;BME280;53000;45.182;5.736;2023-11-21T08:22:47;98898.53;;;15.49;58.21
66196;BME280;53000;45.182;5.736;2023-11-21T08:25:13;98903.75;;;15.51;58.15
66196;BME280;53000;45.182;5.736;2023-11-21T08:27:39;98902.09;;;15.50;57.58
66196;BME280;53000;45.182;5.736;2023-11-21T08:30:04;98896.63;;;15.50;57.29
66196;BME280;53000;45.182;5.736;2023-11-21T08:32:30;98900.19;;;15.50;57.21
66196;BME280;53000;45.182;5.736;2023-11-21T08:34:58;98903.56;;;15.52;57.72
66196;BME280;53000;45.182;5.736;2023-11-21T08:37:23;98897.91;;;15.47;56.89
66196;BME280;53000;45.182;5.736;2023-11-21T08:39:49;98900.84;;;15.39;57.54
66196;BME280;53000;45.182;5.736;2023-11-21T08:42:14;98905.22;;;15.27;55.74
66196;BME280;53000;45.182;5.736;2023-11-21T08:44:40;98905.03;;;15.15;56.20
66196;BME280;53000;45.182;5.736;2023-11-21T08:47:06;98906.69;;;15.09;57.11
66196;BME280;53000;45.182;5.736;2023-11-21T08:49:32;98896.63;;;15.10;56.97
66196;BME280;53000;45.182;5.736;2023-11-21T08:51:57;98904.59;;;15.11;56.86
66196;BME280;53000;45.182;5.736;2023-11-21T08:54:25;98897.88;;;15.14;57.05
66196;BME280;53000;45.182;5.736;2023-11-21T08:56:51;98897.88;;;15.27;56.81
66196;BME280;53000;45.182;5.736;2023-11-21T08:59:16;98899.38;;;15.50;57.02
66196;BME280;53000;45.182;5.736;2023-11-21T09:01:42;98905.03;;;15.88;56.71
66196;BME280;53000;45.182;5.736;2023-11-21T09:04:07;98903.22;;;16.27;56.36
66196;BME280;53000;45.182;5.736;2023-11-21T09:06:33;98906.09;;;16.46;55.40
66196;BME280;53000;45.182;5.736;2023-11-21T09:08:58;98897.25;;;16.50;54.78
66196;BME280;53000;45.182;5.736;2023-11-21T09:11:24;98896.84;;;16.47;53.77
66196;BME280;53000;45.182;5.736;2023-11-21T09:13:50;98893.31;;;16.40;54.20
66196;BME280;53000;45.182;5.736;2023-11-21T09:16:16;98897.34;;;16.24;54.46
66196;BME280;53000;45.182;5.736;2023-11-21T09:18:42;98897.19;;;16.12;53.63
66196;BME280;53000;45.182;5.736;2023-11-21T09:21:07;98903.31;;;16.07;54.54
66196;BME280;53000;45.182;5.736;2023-11-21T09:23:34;98901.22;;;16.03;54.97
66196;BME280;53000;45.182;5.736;2023-11-21T09:25:59;98898.91;;;16.00;54.90
66196;BME280;53000;45.182;5.736;2023-11-21T09:28:26;98896.06;;;16.33;53.60
66196;BME280;53000;45.182;5.736;2023-11-21T09:30:52;98900.03;;;16.89;52.15
66196;BME280;53000;45.182;5.736;2023-11-21T09:33:18;98895.69;;;17.06;54.18
66196;BME280;53000;45.182;5.736;2023-11-21T09:35:43;98897.19;;;17.02;52.78
66196;BME280;53000;45.182;5.736;2023-11-21T09:38:09;98896.22;;;16.90;53.50
66196;BME280;53000;45.182;5.736;2023-11-21T09:40:36;98907.00;;;16.78;52.48
66196;BME280;53000;45.182;5.736;2023-11-21T09:43:06;98895.72;;;16.61;53.27
66196;BME280;53000;45.182;5.736;2023-11-21T09:45:35;98892.88;;;16.43;52.83
66196;BME280;53000;45.182;5.736;2023-11-21T09:48:01;98896.50;;;16.23;53.50
66196;BME280;53000;45.182;5.736;2023-11-21T09:50:27;98899.28;;;16.10;53.74
66196;BME280;53000;45.182;5.736;2023-11-21T09:53:21;98904.16;;;15.94;54.43
66196;BME280;53000;45.182;5.736;2023-11-21T09:55:51;98909.03;;;15.79;54.21
66196;BME280;53000;45.182;5.736;2023-11-21T09:58:18;98910.69;;;15.67;54.73
66196;BME280;53000;45.182;5.736;2023-11-21T10:00:45;98911.09;;;15.50;54.67
66196;BME280;53000;45.182;5.736;2023-11-21T10:03:12;98910.91;;;15.39;55.00
66196;BME280;53000;45.182;5.736;2023-11-21T10:05:38;98902.31;;;15.28;55.37
66196;BME280;53000;45.182;5.736;2023-11-21T10:08:07;98900.22;;;15.17;55.76
66196;BME280;53000;45.182;5.736;2023-11-21T10:10:32;98905.03;;;15.02;55.51
66196;BME280;53000;45.182;5.736;2023-11-21T10:13:02;98905.78;;;14.82;55.84
66196;BME280;53000;45.182;5.736;2023-11-21T10:15:29;98902.38;;;14.60;56.42
66196;BME280;53000;45.182;5.736;2023-11-21T10:17:55;98899.56;;;14.40;56.54
66196;BME280;53000;45.182;5.736;2023-11-21T10:20:23;98895.97;;;14.33;56.79
66196;BME280;53000;45.182;5.736;2023-11-21T10:22:49;98892.81;;;14.23;57.17
66196;BME280;53000;45.182;5.736;2023-11-21T10:25:15;98890.41;;;14.06;57.57
66196;BME280;53000;45.182;5.736;2023-11-21T10:27:42;98886.59;;;14.01;57.95
66196;BME280;53000;45.182;5.736;2023-11-21T10:30:08;98890.19;;;14.01;58.30
66196;BME280;53000;45.182;5.736;2023-11-21T10:32:37;98890.19;;;14.01;58.98
66196;BME280;53000;45.182;5.736;2023-11-21T10:35:03;98885.59;;;14.02;59.22
66196;BME280;53000;45.182;5.736;2023-11-21T10:37:41;98884.75;;;14.01;58.48
66196;BME280;53000;45.182;5.736;2023-11-21T10:40:09;98889.78;;;14.04;58.80
66196;BME280;53000;45.182;5.736;2023-11-21T10:42:38;98891.66;;;14.04;58.69
66196;BME280;53000;45.182;5.736;2023-11-21T10:45:05;98891.22;;;14.00;58.51
66196;BME280;53000;45.182;5.736;2023-11-21T10:47:41;98872.13;;;13.94;59.15
66196;BME280;53000;45.182;5.736;2023-11-21T10:50:07;98866.47;;;13.88;59.04
66196;BME280;53000;45.182;5.736;2023-11-21T10:52:44;98875.22;;;13.84;58.95
66196;BME280;53000;45.182;5.736;2023-11-21T10:55:19;98865.34;;;13.76;58.92
66196;BME280;53000;45.182;5.736;2023-11-21T10:57:52;98864.47;;;13.69;59.59
66196;BME280;53000;45.182;5.736;2023-11-21T11:00:18;98866.28;;;13.62;59.11
66196;BME280;53000;45.182;5.736;2023-11-21T11:02:51;98869.63;;;13.57;59.21
66196;BME280;53000;45.182;5.736;2023-11-21T11:05:20;98871.31;;;13.58;59.47
66196;BME280;53000;45.182;5.736;2023-11-21T11:07:48;98866.72;;;13.59;60.06
66196;BME280;53000;45.182;5.736;2023-11-21T11:10:19;98861.91;;;13.61;60.47
66196;BME280;53000;45.182;5.736;2023-11-21T11:12:48;98861.69;;;13.62;60.63
66196;BME280;53000;45.182;5.736;2023-11-21T11:15:15;98867.13;;;13.62;60.36
66196;BME280;53000;45.182;5.736;2023-11-21T11:17:41;98853.97;;;13.66;60.47
66196;BME280;53000;45.182;5.736;2023-11-21T11:20:08;98848.34;;;13.67;61.22
66196;BME280;53000;45.182;5.736;2023-11-21T11:22:46;98853.25;;;13.85;60.77
66196;BME280;53000;45.182;5.736;2023-11-21T11:25:38;98854.03;;;14.14;59.97
66196;BME280;53000;45.182;5.736;2023-11-21T11:28:15;98851.41;;;14.47;59.90
66196;BME280;53000;45.182;5.736;2023-11-21T11:38:21;98850.06;;;15.11;58.12
66196;BME280;53000;45.182;5.736;2023-11-21T11:40:47;98846.53;;;15.11;58.15
66196;BME280;53000;45.182;5.736;2023-11-21T11:43:13;98850.72;;;15.13;58.25
66196;BME280;53000;45.182;5.736;2023-11-21T11:45:38;98846.72;;;15.09;57.81
66196;BME280;53000;45.182;5.736;2023-11-21T11:48:08;98835.81;;;15.03;57.93
66196;BME280;53000;45.182;5.736;2023-11-21T11:50:42;98835.63;;;14.98;58.28
66196;BME280;53000;45.182;5.736;2023-11-21T11:53:14;98833.72;;;14.85;58.16
66196;BME280;53000;45.182;5.736;2023-11-21T11:55:41;98837.91;;;14.81;58.40
66196;BME280;53000;45.182;5.736;2023-11-21T11:58:07;98833.28;;;14.75;58.18
66196;BME280;53000;45.182;5.736;2023-11-21T12:00:34;98832.22;;;14.62;57.88
66196;BME280;53000;45.182;5.736;2023-11-21T12:03:03;98832.00;;;14.57;58.38
66196;BME280;53000;45.182;5.736;2023-11-21T12:05:31;98834.03;;;14.48;58.29
66196;BME280;53000;45.182;5.736;2023-11-21T12:08:09;98824.38;;;14.39;58.33
66196;BME280;53000;45.182;5.736;2023-11-21T12:10:36;98819.53;;;14.35;58.87
66196;BME280;53000;45.182;5.736;2023-11-21T12:13:05;98821.63;;;14.26;59.05
66196;BME280;53000;45.182;5.736;2023-11-21T12:15:33;98819.50;;;14.21;59.35
66196;BME280;53000;45.182;5.736;2023-11-21T12:17:59;98820.75;;;14.19;59.94
66196;BME280;53000;45.182;5.736;2023-11-21T12:20:25;98812.97;;;14.09;59.69
66196;BME280;53000;45.182;5.736;2023-11-21T12:23:01;98820.72;;;14.05;59.85
66196;BME280;53000;45.182;5.736;2023-11-21T12:25:29;98830.09;;;14.03;60.08
66196;BME280;53000;45.182;5.736;2023-11-21T12:27:57;98814.59;;;13.97;59.72
66196;BME280;53000;45.182;5.736;2023-11-21T12:30:24;98821.50;;;13.93;59.84
66196;BME280;53000;45.182;5.736;2023-11-21T12:32:54;98824.78;;;13.81;59.84
66196;BME280;53000;45.182;5.736;2023-11-21T12:35:22;98824.31;;;13.71;60.19
66196;BME280;53000;45.182;5.736;2023-11-21T12:37:50;98822.41;;;13.65;60.12
66196;BME280;53000;45.182;5.736;2023-11-21T12:40:16;98820.31;;;13.67;60.23
66196;BME280;53000;45.182;5.736;2023-11-21T12:42:43;98825.75;;;13.67;60.06
66196;BME280;53000;45.182;5.736;2023-11-21T12:45:29;98819.22;;;13.61;60.08
66196;BME280;53000;45.182;5.736;2023-11-21T12:48:01;98816.47;;;13.55;60.63
66196;BME280;53000;45.182;5.736;2023-11-21T12:50:32;98818.94;;;13.49;60.85
66196;BME280;53000;45.182;5.736;2023-11-21T12:53:06;98827.31;;;13.48;61.22
66196;BME280;53000;45.182;5.736;2023-11-21T12:55:34;98827.50;;;13.46;61.58
66196;BME280;53000;45.182;5.736;2023-11-21T12:58:04;98829.59;;;13.44;62.02
66196;BME280;53000;45.182;5.736;2023-11-21T13:00:38;98818.72;;;13.44;61.79
66196;BME280;53000;45.182;5.736;2023-11-21T13:03:06;98828.75;;;13.44;62.30
66196;BME280;53000;45.182;5.736;2023-11-21T13:05:36;98832.91;;;13.40;62.24
66196;BME280;53000;45.182;5.736;2023-11-21T13:08:08;98835.81;;;13.38;62.02